createdAt,value
2022-11-07T00:02:37.712Z,10.50
2022-11-07T00:07:39.444Z,11.40
2022-11-07T00:12:41.124Z,10.60
2022-11-07T00:17:42.821Z,11.80
2022-11-07T00:22:44.500Z,11.40
2022-11-07T00:32:48.455Z,10.40
2022-11-07T00:37:50.080Z,11.90
2022-11-07T00:42:51.759Z,10.30
2022-11-07T00:52:57.398Z,10.50
2022-11-07T01:03:19.950Z,10.50
2022-11-07T01:08:21.609Z,13.20
2022-11-07T01:13:23.698Z,12.00
2022-11-07T01:18:25.716Z,10.40
2022-11-07T01:28:29.543Z,10.40
2022-11-07T01:33:31.691Z,10.40
2022-11-07T01:38:33.369Z,11.90
2022-11-07T01:43:41.833Z,10.90
2022-11-07T01:48:50.511Z,13.20
2022-11-07T01:53:54.590Z,13.10
2022-11-07T01:58:57.479Z,13.40
2022-11-07T02:04:00.174Z,10.50
2022-11-07T02:09:01.914Z,10.50
2022-11-07T02:14:04.058Z,10.60
2022-11-07T02:19:21.218Z,10.50
2022-11-07T02:24:25.030Z,12.10
2022-11-07T02:29:27.525Z,10.60
2022-11-07T02:44:34.082Z,10.90
2022-11-07T02:49:35.733Z,11.00
2022-11-07T02:59:39.440Z,10.90
2022-11-07T03:04:45.161Z,13.40
2022-11-07T03:09:49.695Z,11.50
2022-11-07T03:14:51.519Z,10.70
2022-11-07T03:19:53.261Z,12.70
2022-11-07T03:24:54.879Z,10.60
2022-11-07T03:29:56.660Z,10.60
2022-11-07T03:34:58.347Z,10.50
2022-11-07T03:40:00.017Z,10.50
2022-11-07T03:45:01.696Z,10.50
2022-11-07T03:50:04.369Z,11.80
2022-11-07T03:55:06.684Z,10.30
2022-11-07T04:00:09.492Z,10.40
2022-11-07T04:05:12.226Z,10.40
2022-11-07T04:10:13.887Z,10.40
2022-11-07T04:15:34.209Z,10.30
2022-11-07T04:20:35.859Z,10.50
2022-11-07T04:25:56.137Z,10.30
2022-11-07T05:06:14.626Z,10.30
2022-11-07T05:11:16.365Z,11.20
2022-11-07T05:16:18.132Z,10.50
2022-11-07T05:26:21.957Z,10.60
2022-11-07T05:31:23.642Z,10.60
2022-11-07T05:46:30.095Z,11.00
2022-11-07T06:11:40.386Z,11.40
2022-11-07T06:16:42.706Z,11.30
2022-11-07T06:26:46.989Z,11.20
2022-11-07T06:31:48.625Z,13.00
2022-11-07T06:37:02.824Z,11.70
2022-11-07T06:47:07.113Z,11.60
2022-11-07T07:02:26.011Z,12.00
2022-11-07T07:07:35.751Z,11.90
2022-11-07T07:12:37.471Z,12.10
2022-11-07T07:22:41.234Z,12.30
2022-11-07T07:27:42.940Z,12.40
2022-11-07T07:32:44.670Z,12.60
2022-11-07T07:37:50.933Z,12.80
2022-11-07T07:42:52.670Z,12.80
2022-11-07T07:48:00.447Z,12.80
2022-11-07T07:53:07.759Z,12.80
2022-11-07T07:58:11.697Z,13.00
2022-11-07T08:03:13.839Z,14.50
2022-11-07T08:08:15.809Z,13.20
2022-11-07T08:13:18.096Z,13.40
2022-11-07T08:18:21.951Z,13.50
2022-11-07T08:23:24.448Z,13.70
2022-11-07T08:28:28.444Z,13.70
2022-11-07T08:38:34.942Z,13.70
2022-11-07T08:43:36.618Z,13.80
2022-11-07T08:48:39.920Z,13.70
2022-11-07T08:53:41.617Z,13.80
2022-11-07T08:58:43.267Z,14.00
2022-11-07T09:03:50.352Z,13.70
2022-11-07T09:08:56.570Z,13.80
2022-11-07T09:13:58.297Z,13.90
2022-11-07T09:18:59.952Z,14.30
2022-11-07T09:24:01.846Z,14.20
2022-11-07T09:29:04.235Z,14.30
2022-11-07T09:34:07.350Z,14.20
2022-11-07T09:39:09.090Z,14.20
2022-11-07T09:44:40.947Z,14.40
2022-11-07T09:49:55.812Z,14.40
2022-11-07T09:55:24.475Z,14.70
2022-11-07T10:00:29.529Z,14.60
2022-11-07T10:05:35.053Z,15.20
2022-11-07T10:10:55.307Z,15.00
2022-11-07T10:16:18.373Z,15.80
2022-11-07T10:21:37.668Z,15.50
2022-11-07T10:26:44.012Z,15.10
2022-11-07T10:32:20.904Z,15.70
2022-11-07T10:37:22.718Z,15.70
2022-11-07T10:42:29.403Z,15.50
2022-11-07T10:47:31.051Z,15.50
2022-11-07T10:52:33.055Z,15.10
2022-11-07T10:57:35.993Z,15.70
2022-11-07T11:02:48.191Z,14.90
2022-11-07T11:07:50.477Z,14.90
2022-11-07T11:12:52.452Z,16.20
2022-11-07T11:18:06.241Z,15.60
2022-11-07T11:23:19.306Z,17.00
2022-11-07T11:28:27.447Z,17.70
2022-11-07T11:33:39.291Z,18.00
2022-11-07T11:38:42.335Z,18.10
2022-11-07T11:44:12.818Z,17.60
2022-11-07T11:49:23.154Z,17.50
2022-11-07T11:59:48.835Z,16.90
2022-11-07T12:05:17.549Z,16.80
2022-11-07T12:10:39.512Z,16.50
2022-11-07T12:15:44.218Z,16.30
2022-11-07T12:21:09.577Z,15.70
2022-11-07T12:26:21.184Z,15.40
2022-11-07T12:31:33.343Z,15.40
2022-11-07T12:37:13.658Z,15.50
2022-11-07T12:42:28.351Z,15.10
2022-11-07T12:47:41.936Z,15.10
2022-11-07T12:53:07.989Z,15.10
2022-11-07T12:58:24.372Z,15.00
2022-11-07T13:03:35.230Z,15.50
2022-11-07T13:09:07.790Z,16.20
2022-11-07T13:14:24.244Z,19.60
2022-11-07T13:19:32.950Z,25.80
2022-11-07T13:24:49.428Z,22.60
2022-11-07T13:29:51.877Z,19.20
2022-11-07T13:35:00.451Z,17.60
2022-11-07T13:40:07.094Z,18.90
2022-11-07T13:45:38.478Z,17.40
2022-11-07T13:50:43.723Z,17.20
2022-11-07T13:55:52.526Z,19.20
2022-11-07T14:00:54.284Z,17.60
2022-11-07T14:05:57.024Z,18.00
2022-11-07T14:10:59.320Z,18.50
2022-11-07T14:16:19.485Z,17.50
2022-11-07T14:21:27.926Z,16.20
2022-11-07T14:26:32.786Z,15.70
2022-11-07T14:31:37.214Z,16.90
2022-11-07T14:36:48.317Z,15.70
2022-11-07T14:41:51.345Z,15.80
2022-11-07T14:51:56.276Z,15.70
2022-11-07T14:56:58.893Z,15.70
2022-11-07T15:02:06.458Z,15.60
2022-11-07T15:07:24.729Z,15.60
2022-11-07T15:12:29.843Z,15.30
2022-11-07T15:17:33.451Z,15.10
2022-11-07T15:22:39.304Z,15.00
2022-11-07T15:27:41.518Z,14.90
2022-11-07T15:32:43.423Z,14.80
2022-11-07T15:37:56.333Z,14.70
2022-11-07T15:42:58.363Z,14.50
2022-11-07T15:48:00.110Z,14.40
2022-11-07T15:53:01.800Z,14.30
2022-11-07T15:58:03.553Z,14.20
2022-11-07T16:03:05.262Z,14.10
2022-11-07T16:08:09.123Z,14.00
2022-11-07T16:13:10.865Z,14.90
2022-11-07T16:18:16.951Z,14.00
2022-11-07T16:23:19.435Z,13.80
2022-11-07T16:28:25.578Z,13.80
2022-11-07T16:33:28.461Z,13.70
2022-11-07T16:38:35.382Z,13.70
2022-11-07T16:43:38.060Z,15.60
2022-11-07T16:48:40.296Z,13.70
2022-11-07T16:53:43.125Z,14.00
2022-11-07T16:58:44.875Z,14.70
2022-11-07T17:03:46.631Z,13.20
2022-11-07T17:08:49.055Z,13.30
2022-11-07T17:13:50.777Z,13.40
2022-11-07T17:18:53.028Z,13.40
2022-11-07T17:23:56.466Z,13.10
2022-11-07T17:28:59.610Z,12.60
2022-11-07T17:34:01.292Z,12.40
2022-11-07T17:39:08.048Z,12.30
2022-11-07T17:44:10.609Z,12.30
2022-11-07T17:49:14.828Z,13.40
2022-11-07T17:54:16.572Z,12.30
2022-11-07T18:02:35.476Z,12.10
2022-11-07T18:07:40.755Z,12.00
2022-11-07T18:12:43.326Z,12.00
2022-11-07T18:17:45.131Z,11.90
2022-11-07T18:22:46.836Z,11.70
2022-11-07T18:27:48.776Z,11.60
2022-11-07T18:32:51.029Z,11.60
2022-11-07T18:37:52.749Z,11.70
2022-11-07T18:42:54.428Z,11.20
2022-11-07T18:47:56.078Z,11.20
2022-11-07T18:52:57.809Z,11.20
2022-11-07T18:57:59.499Z,11.30
2022-11-07T19:03:01.289Z,11.10
2022-11-07T19:08:03.081Z,11.10
2022-11-07T19:13:08.088Z,11.10
2022-11-07T19:18:10.198Z,11.20
2022-11-07T19:23:12.970Z,10.80
2022-11-07T19:28:15.456Z,10.80
2022-11-07T19:33:17.517Z,10.80
2022-11-07T19:38:19.504Z,10.90
2022-11-07T19:43:21.360Z,10.80
2022-11-07T19:48:23.079Z,10.80
2022-11-07T19:53:24.965Z,10.70
2022-11-07T19:58:26.659Z,10.80
2022-11-07T20:03:28.412Z,10.70
2022-11-07T20:08:30.175Z,10.80
2022-11-07T20:13:31.845Z,10.80
2022-11-07T20:18:37.773Z,10.80
2022-11-07T20:23:43.146Z,10.90
2022-11-07T20:28:46.617Z,10.70
2022-11-07T20:33:48.877Z,10.70
2022-11-07T20:38:50.531Z,10.60
2022-11-07T20:44:03.778Z,10.50
2022-11-07T20:49:07.206Z,10.40
2022-11-07T20:54:13.237Z,10.40
2022-11-07T20:59:14.995Z,10.20
2022-11-07T21:04:17.586Z,10.10
2022-11-07T21:09:21.064Z,10.10
2022-11-07T21:14:22.823Z,10.20
2022-11-07T21:19:24.526Z,10.20
2022-11-07T21:24:30.637Z,10.00
2022-11-07T21:29:33.405Z,10.00
2022-11-07T21:34:37.309Z,10.00
2022-11-07T21:39:38.986Z,10.00
2022-11-07T21:44:40.647Z,9.90
2022-11-07T21:54:44.956Z,9.90
2022-11-07T22:14:53.118Z,9.60
2022-11-07T22:19:54.921Z,9.70
2022-11-07T22:24:56.603Z,9.60
2022-11-07T22:29:58.269Z,9.50
2022-11-07T22:35:01.673Z,9.40
2022-11-07T22:40:07.515Z,9.40
2022-11-07T22:45:09.452Z,9.40
2022-11-07T22:50:11.181Z,9.30
2022-11-07T22:55:12.930Z,9.40
2022-11-07T23:00:21.402Z,9.40
2022-11-07T23:05:23.386Z,9.20
2022-11-07T23:10:25.066Z,8.80
2022-11-07T23:25:50.040Z,8.90
2022-11-07T23:30:52.672Z,8.80
2022-11-07T23:36:01.720Z,9.00
2022-11-07T23:41:05.357Z,9.00
2022-11-07T23:46:26.102Z,8.90
2022-11-07T23:51:28.194Z,8.60
